createdAt,value
2023-01-23T00:00:12.072Z,102948.09
2023-01-23T00:02:39.862Z,102951.72
2023-01-23T00:05:08.598Z,102961.59
2023-01-23T00:07:36.489Z,102948.13
2023-01-23T00:10:04.813Z,102952.63
2023-01-23T00:12:32.569Z,102959.88
2023-01-23T00:15:00.349Z,102959.84
2023-01-23T00:17:29.646Z,102962.53
2023-01-23T00:19:58.313Z,102956.25
2023-01-23T00:22:26.168Z,102955.31
2023-01-23T00:24:54.022Z,102957.13
2023-01-23T00:27:21.829Z,102957.06
2023-01-23T00:29:49.680Z,102957.06
2023-01-23T00:32:17.685Z,102960.72
2023-01-23T00:34:47.310Z,102954.34
2023-01-23T00:37:16.953Z,102955.25
2023-01-23T00:39:46.192Z,102958.00
2023-01-23T00:42:14.078Z,102962.47
2023-01-23T00:44:41.856Z,102963.44
2023-01-23T00:47:09.751Z,102960.72
2023-01-23T00:49:37.525Z,102961.63
2023-01-23T00:52:07.535Z,102950.81
2023-01-23T00:54:35.407Z,102954.41
2023-01-23T00:57:03.168Z,102952.66
2023-01-23T00:59:31.209Z,102955.31
2023-01-23T01:01:59.110Z,102954.47
2023-01-23T01:04:26.947Z,102955.38
2023-01-23T01:06:55.262Z,102969.81
2023-01-23T01:09:25.547Z,102982.47
2023-01-23T01:11:53.411Z,102971.66
2023-01-23T01:14:21.372Z,102978.03
2023-01-23T01:16:49.354Z,102977.13
2023-01-23T01:19:18.279Z,102981.63
2023-01-23T01:21:46.489Z,102976.25
2023-01-23T01:24:14.295Z,102980.81
2023-01-23T01:26:43.510Z,102980.81
2023-01-23T01:29:11.269Z,102968.25
2023-01-23T01:31:39.084Z,102963.72
2023-01-23T01:34:06.885Z,102971.75
2023-01-23T01:36:34.735Z,102976.28
2023-01-23T01:39:02.541Z,102990.72
2023-01-23T01:41:30.918Z,102987.91
2023-01-23T01:44:00.197Z,102987.91
2023-01-23T01:46:29.828Z,102982.50
2023-01-23T01:49:09.151Z,102987.91
2023-01-23T01:51:42.233Z,102985.22
2023-01-23T01:54:17.764Z,102996.88
2023-01-23T01:56:50.073Z,102994.09
2023-01-23T01:59:21.076Z,103000.50
2023-01-23T02:01:54.753Z,103003.09
2023-01-23T02:04:22.615Z,103008.50
2023-01-23T02:06:51.927Z,103012.09
2023-01-23T02:09:25.425Z,103012.06
2023-01-23T02:11:54.589Z,103010.28
2023-01-23T02:14:25.760Z,103012.94
2023-01-23T02:16:56.130Z,103012.03
2023-01-23T02:19:38.509Z,103016.44
2023-01-23T02:22:15.997Z,103017.41
2023-01-23T02:24:53.559Z,103011.94
2023-01-23T02:27:24.342Z,103015.50
2023-01-23T02:29:56.182Z,103020.91
2023-01-23T02:32:26.962Z,103014.59
2023-01-23T02:34:58.787Z,103010.00
2023-01-23T02:37:31.853Z,103007.28
2023-01-23T02:39:59.653Z,103015.78
2023-01-23T02:42:29.602Z,103003.78
2023-01-23T02:44:58.086Z,103000.09
2023-01-23T02:47:26.088Z,102998.28
2023-01-23T02:49:57.449Z,102987.44
2023-01-23T02:52:25.566Z,102984.78
2023-01-23T02:54:53.341Z,102984.78
2023-01-23T02:57:21.161Z,102982.97
2023-01-23T03:00:08.201Z,102980.28
2023-01-23T03:02:38.183Z,102980.38
2023-01-23T03:05:06.823Z,102970.44
2023-01-23T03:07:34.779Z,102978.56
2023-01-23T03:10:04.655Z,102967.78
2023-01-23T03:12:32.591Z,102968.69
2023-01-23T03:15:02.659Z,102965.97
2023-01-23T03:17:30.615Z,102966.03
2023-01-23T03:19:58.909Z,102966.94
2023-01-23T03:22:27.500Z,102979.66
2023-01-23T03:24:57.634Z,102982.44
2023-01-23T03:27:25.741Z,102985.19
2023-01-23T03:30:13.511Z,102980.75
2023-01-23T03:32:44.118Z,102987.16
2023-01-23T03:35:16.427Z,102996.25
2023-01-23T03:37:44.421Z,102999.94
2023-01-23T03:40:49.718Z,103006.19
2023-01-23T03:43:19.264Z,103017.97
2023-01-23T03:45:49.996Z,103016.19
2023-01-23T03:48:20.234Z,103027.91
2023-01-23T03:50:48.104Z,103021.66
2023-01-23T03:53:18.613Z,103026.16
2023-01-23T03:55:46.807Z,103025.31
2023-01-23T03:58:14.789Z,103027.09
2023-01-23T04:00:44.957Z,103020.81
2023-01-23T04:03:12.910Z,103022.66
2023-01-23T04:05:42.107Z,103021.69
2023-01-23T04:08:10.054Z,103018.19
2023-01-23T04:10:38.370Z,103028.03
2023-01-23T04:13:13.043Z,103021.84
2023-01-23T04:15:41.549Z,103022.75
2023-01-23T04:18:09.571Z,103027.25
2023-01-23T04:20:37.539Z,103024.56
2023-01-23T04:23:06.994Z,103018.19
2023-01-23T04:25:34.834Z,103009.19
2023-01-23T04:28:05.002Z,103011.84
2023-01-23T04:30:33.554Z,103009.13
2023-01-23T04:33:09.105Z,103015.44
2023-01-23T04:35:37.745Z,103018.94
2023-01-23T04:38:07.146Z,103019.03
2023-01-23T04:40:37.015Z,103011.75
2023-01-23T04:43:05.045Z,103008.25
2023-01-23T04:45:40.576Z,103010.84
2023-01-23T04:48:28.703Z,103012.63
2023-01-23T04:50:56.545Z,103009.91
2023-01-23T04:53:25.704Z,103016.09
2023-01-23T04:56:00.576Z,103006.19
2023-01-23T04:58:28.555Z,103011.56
2023-01-23T05:01:03.636Z,103012.38
2023-01-23T05:03:34.861Z,103008.78
2023-01-23T05:06:02.869Z,103010.53
2023-01-23T05:08:32.102Z,103012.25
2023-01-23T05:11:15.978Z,103007.81
2023-01-23T05:13:44.883Z,103006.84
2023-01-23T05:16:14.076Z,103019.41
2023-01-23T05:19:00.506Z,103018.59
2023-01-23T05:21:29.562Z,103028.44
2023-01-23T05:23:58.779Z,103020.44
2023-01-23T05:26:26.631Z,103018.59
2023-01-23T05:28:56.100Z,103020.44
2023-01-23T05:31:24.007Z,103021.31
2023-01-23T05:34:11.873Z,103023.06
2023-01-23T05:36:41.155Z,103024.91
2023-01-23T05:39:10.357Z,103028.50
2023-01-23T05:41:38.179Z,103030.31
2023-01-23T05:44:31.516Z,103035.78
2023-01-23T05:47:20.175Z,103040.28
2023-01-23T05:49:49.266Z,103039.38
2023-01-23T05:52:17.083Z,103034.88
2023-01-23T05:54:46.331Z,103030.38
2023-01-23T05:57:14.577Z,103034.06
2023-01-23T05:59:45.521Z,103036.78
2023-01-23T06:02:31.976Z,103038.63
2023-01-23T06:05:28.643Z,103039.50
2023-01-23T06:08:03.623Z,103033.25
2023-01-23T06:10:32.892Z,103032.31
2023-01-23T06:13:00.673Z,103044.00
2023-01-23T06:15:28.622Z,103048.50
2023-01-23T06:17:57.880Z,103057.50
2023-01-23T06:20:26.926Z,103054.78
2023-01-23T06:22:54.828Z,103061.94
2023-01-23T06:25:22.895Z,103060.13
2023-01-23T06:27:55.179Z,103067.28
2023-01-23T06:30:24.752Z,103069.06
2023-01-23T06:32:52.748Z,103078.94
2023-01-23T06:35:27.694Z,103078.94
2023-01-23T06:37:56.348Z,103087.03
2023-01-23T06:40:24.987Z,103084.31
2023-01-23T06:43:07.171Z,103093.31
2023-01-23T06:45:35.100Z,103091.50
2023-01-23T06:48:02.933Z,103090.59
2023-01-23T06:50:30.946Z,103092.41
2023-01-23T06:52:58.687Z,103096.91
2023-01-23T06:55:26.765Z,103101.34
2023-01-23T06:57:54.823Z,103103.19
2023-01-23T07:00:24.395Z,103102.25
2023-01-23T07:02:59.284Z,103112.19
2023-01-23T07:05:27.436Z,103113.13
2023-01-23T07:07:55.735Z,103108.59
2023-01-23T07:10:23.896Z,103117.56
2023-01-23T07:12:52.307Z,103105.00
2023-01-23T07:15:20.256Z,103114.00
2023-01-23T07:17:50.681Z,103120.22
2023-01-23T07:20:19.001Z,103126.59
2023-01-23T07:22:51.348Z,103134.72
2023-01-23T07:25:19.196Z,103141.00
2023-01-23T07:27:46.980Z,103142.75
2023-01-23T07:30:15.253Z,103139.13
2023-01-23T07:32:43.182Z,103146.31
2023-01-23T07:35:12.379Z,103139.13
2023-01-23T07:37:40.233Z,103149.03
2023-01-23T07:40:08.996Z,103146.31
2023-01-23T07:42:36.738Z,103149.03
2023-01-23T07:45:04.918Z,103148.09
2023-01-23T07:47:32.864Z,103155.28
2023-01-23T07:50:00.793Z,103151.72
2023-01-23T07:52:30.082Z,103153.59
2023-01-23T07:54:57.916Z,103157.13
2023-01-23T07:57:25.774Z,103161.72
2023-01-23T07:59:53.710Z,103161.72
2023-01-23T08:02:21.522Z,103173.44
2023-01-23T08:04:49.458Z,103175.16
2023-01-23T08:07:17.417Z,103166.13
2023-01-23T08:09:46.725Z,103176.03
2023-01-23T08:12:14.553Z,103174.31
2023-01-23T08:14:42.391Z,103180.66
2023-01-23T08:17:10.249Z,103177.03
2023-01-23T08:19:38.472Z,103171.63
2023-01-23T08:22:06.298Z,103162.63
2023-01-23T08:24:34.186Z,103164.41
2023-01-23T08:27:03.439Z,103170.63
2023-01-23T08:29:32.637Z,103167.03
2023-01-23T08:32:01.038Z,103160.75
2023-01-23T08:34:28.932Z,103161.59
2023-01-23T08:36:56.710Z,103165.22
2023-01-23T08:39:25.312Z,103172.41
2023-01-23T08:41:53.177Z,103169.69
2023-01-23T08:44:22.370Z,103168.81
2023-01-23T08:46:50.198Z,103175.13
2023-01-23T08:49:19.529Z,103180.50
2023-01-23T08:51:47.475Z,103181.41
2023-01-23T08:54:15.590Z,103192.22
2023-01-23T08:56:43.380Z,103190.44
2023-01-23T08:59:11.307Z,103193.09
2023-01-23T09:01:40.455Z,103188.53
2023-01-23T09:04:08.454Z,103193.00
2023-01-23T09:06:36.354Z,103186.72
2023-01-23T09:09:04.400Z,103185.81
2023-01-23T09:11:32.452Z,103187.56
2023-01-23T09:14:00.294Z,103191.16
2023-01-23T09:16:28.110Z,103183.00
2023-01-23T09:18:57.503Z,103196.56
2023-01-23T09:21:25.306Z,103198.31
2023-01-23T09:23:53.170Z,103198.28
2023-01-23T09:26:20.920Z,103199.22
2023-01-23T09:28:48.735Z,103191.06
2023-01-23T09:31:16.559Z,103193.81
2023-01-23T09:33:44.503Z,103200.06
2023-01-23T09:36:13.701Z,103191.00
2023-01-23T09:38:41.504Z,103194.56
2023-01-23T09:41:12.410Z,103197.22
2023-01-23T09:43:46.310Z,103195.44
2023-01-23T09:46:20.257Z,103197.22
2023-01-23T09:48:52.119Z,103207.13
2023-01-23T09:51:28.814Z,103208.03
2023-01-23T09:54:01.379Z,103205.31
2023-01-23T09:56:32.529Z,103209.75
2023-01-23T09:59:08.531Z,103209.72
2023-01-23T10:01:38.009Z,103206.16
2023-01-23T10:04:06.801Z,103213.34
2023-01-23T10:06:56.279Z,103212.41
2023-01-23T10:09:38.227Z,103217.84
2023-01-23T10:12:14.584Z,103207.91
2023-01-23T10:15:00.209Z,103220.44
2023-01-23T10:17:34.485Z,103215.94
2023-01-23T10:20:25.142Z,103214.13
2023-01-23T10:23:07.719Z,103214.09
2023-01-23T10:25:40.942Z,103215.91
2023-01-23T10:28:26.982Z,103215.91
2023-01-23T10:30:59.908Z,103215.00
2023-01-23T10:33:30.729Z,103217.97
2023-01-23T10:36:04.573Z,103214.94
2023-01-23T10:38:38.614Z,103214.88
2023-01-23T10:41:21.176Z,103213.00
2023-01-23T10:43:52.898Z,103220.16
2023-01-23T10:46:22.565Z,103210.34
2023-01-23T10:48:51.979Z,103212.97
2023-01-23T10:51:32.499Z,103223.78
2023-01-23T10:54:22.660Z,103221.94
2023-01-23T10:57:00.501Z,103216.53
2023-01-23T10:59:32.642Z,103224.53
2023-01-23T11:02:19.918Z,103217.31
2023-01-23T11:04:51.627Z,103220.00
2023-01-23T11:07:22.933Z,103219.06
2023-01-23T11:09:55.618Z,103220.78
2023-01-23T11:12:25.760Z,103219.00
2023-01-23T11:15:12.147Z,103214.47
2023-01-23T11:17:40.510Z,103213.56
2023-01-23T11:20:13.360Z,103210.78
2023-01-23T11:22:42.190Z,103206.31
2023-01-23T11:25:31.125Z,103210.78
2023-01-23T11:28:01.465Z,103204.59
2023-01-23T11:30:45.548Z,103202.66
2023-01-23T11:33:18.545Z,103203.56
2023-01-23T11:35:55.783Z,103193.63
2023-01-23T11:38:31.079Z,103192.72
2023-01-23T11:41:00.588Z,103186.44
2023-01-23T11:43:28.451Z,103182.81
2023-01-23T11:46:13.563Z,103179.13
2023-01-23T11:48:55.166Z,103173.69
2023-01-23T11:51:33.719Z,103181.88
2023-01-23T11:54:13.488Z,103179.06
2023-01-23T11:56:55.810Z,103177.25
2023-01-23T11:59:46.175Z,103184.53
2023-01-23T12:02:40.765Z,103182.75
2023-01-23T12:05:38.392Z,103190.88
2023-01-23T12:08:19.136Z,103187.19
2023-01-23T12:10:55.689Z,103186.34
2023-01-23T12:13:41.557Z,103190.78
2023-01-23T12:16:21.715Z,103188.06
2023-01-23T12:19:07.582Z,103196.13
2023-01-23T12:21:45.384Z,103187.09
2023-01-23T12:24:22.902Z,103186.13
2023-01-23T12:27:01.688Z,103187.03
2023-01-23T12:29:57.066Z,103177.19
2023-01-23T12:32:45.024Z,103174.53
2023-01-23T12:35:28.055Z,103171.78
2023-01-23T12:38:11.629Z,103175.41
2023-01-23T12:40:44.662Z,103179.88
2023-01-23T12:43:15.094Z,103183.81
2023-01-23T12:45:50.384Z,103184.31
2023-01-23T12:48:28.095Z,103174.38
2023-01-23T12:51:02.089Z,103182.44
2023-01-23T12:53:36.083Z,103177.84
2023-01-23T12:56:10.792Z,103189.56
2023-01-23T12:58:42.720Z,103185.94
2023-01-23T13:01:22.844Z,103188.59
2023-01-23T13:04:05.517Z,103187.69
2023-01-23T13:06:51.453Z,103183.19
2023-01-23T13:09:30.297Z,103180.41
2023-01-23T13:12:08.740Z,103184.91
2023-01-23T13:17:47.945Z,103185.06
2023-01-23T13:20:43.487Z,103184.13
2023-01-23T13:23:29.698Z,103178.66
2023-01-23T13:26:31.245Z,103180.50
2023-01-23T13:29:02.141Z,103188.72
2023-01-23T13:31:45.246Z,103192.19
2023-01-23T13:34:42.124Z,103179.72
2023-01-23T13:37:51.482Z,103193.25
2023-01-23T13:40:24.902Z,103189.53
2023-01-23T13:42:52.949Z,103192.22
2023-01-23T13:45:31.909Z,103192.19
2023-01-23T14:20:19.299Z,103206.78
2023-01-23T14:22:47.409Z,103206.78
2023-01-23T14:25:19.225Z,103214.88
2023-01-23T14:27:54.149Z,103221.25
2023-01-23T14:30:27.072Z,103226.66
2023-01-23T14:32:55.779Z,103215.03
2023-01-23T14:35:26.400Z,103216.75
2023-01-23T14:37:58.405Z,103218.56
2023-01-23T14:40:35.202Z,103221.41
2023-01-23T14:43:08.699Z,103223.22
2023-01-23T14:45:38.530Z,103225.88
2023-01-23T14:48:08.192Z,103225.84
2023-01-23T14:50:36.585Z,103225.84
2023-01-23T14:53:06.583Z,103231.19
2023-01-23T14:55:38.623Z,103241.06
2023-01-23T14:58:07.543Z,103236.66
2023-01-23T15:00:37.192Z,103229.38
2023-01-23T15:03:05.614Z,103237.50
2023-01-23T15:05:33.880Z,103241.19
2023-01-23T15:08:04.395Z,103235.75
2023-01-23T15:10:44.680Z,103236.56
2023-01-23T15:13:21.441Z,103233.00
2023-01-23T15:15:56.663Z,103230.28
2023-01-23T15:18:27.525Z,103232.06
2023-01-23T15:20:57.137Z,103232.06
2023-01-23T15:23:32.149Z,103237.44
2023-01-23T15:26:21.338Z,103236.53
2023-01-23T15:28:51.333Z,103232.88
2023-01-23T15:31:31.407Z,103239.16
2023-01-23T15:34:19.616Z,103238.28
2023-01-23T15:36:49.412Z,103227.44
2023-01-23T15:39:22.000Z,103231.00
2023-01-23T15:41:53.678Z,103224.69
2023-01-23T15:44:23.727Z,103222.00
2023-01-23T15:46:51.683Z,103228.28
2023-01-23T15:49:25.957Z,103226.47
2023-01-23T15:51:56.621Z,103232.78
2023-01-23T15:54:29.504Z,103230.00
2023-01-23T15:57:07.083Z,103234.56
2023-01-23T15:59:37.238Z,103226.47
2023-01-23T16:02:05.505Z,103232.78
2023-01-23T16:04:33.604Z,103224.66
2023-01-23T16:07:05.928Z,103224.56
2023-01-23T16:09:36.907Z,103220.09
2023-01-23T16:12:06.821Z,103222.03
2023-01-23T16:14:34.770Z,103221.97
2023-01-23T16:17:15.936Z,103215.66
2023-01-23T16:19:45.003Z,103204.97
2023-01-23T16:22:18.941Z,103204.84
2023-01-23T16:24:47.182Z,103191.34
2023-01-23T16:27:22.960Z,103194.94
2023-01-23T16:29:50.839Z,103191.34
2023-01-23T16:32:18.755Z,103180.50
2023-01-23T16:34:46.735Z,103176.91
2023-01-23T16:37:17.225Z,103187.69
2023-01-23T16:39:46.933Z,103186.81
2023-01-23T16:42:25.098Z,103184.94
2023-01-23T16:44:53.196Z,103187.72
2023-01-23T16:47:20.903Z,103191.34
2023-01-23T16:49:53.616Z,103198.69
2023-01-23T16:52:26.035Z,103203.13
2023-01-23T16:54:55.576Z,103208.50
2023-01-23T16:57:25.853Z,103217.50
2023-01-23T16:59:56.515Z,103211.22
2023-01-23T17:02:28.796Z,103217.50
2023-01-23T17:04:57.882Z,103214.91
2023-01-23T17:07:25.739Z,103213.03
2023-01-23T17:09:53.651Z,103211.22
2023-01-23T17:12:27.606Z,103218.41
2023-01-23T17:14:57.500Z,103223.00
2023-01-23T17:17:30.479Z,103222.94
2023-01-23T17:20:01.028Z,103229.31
2023-01-23T17:22:31.449Z,103232.06
2023-01-23T17:24:59.702Z,103229.34
2023-01-23T17:27:27.467Z,103232.06
2023-01-23T17:29:56.738Z,103232.06
2023-01-23T17:32:30.415Z,103226.69
2023-01-23T17:35:01.802Z,103230.47
2023-01-23T17:37:31.123Z,103228.63
2023-01-23T17:39:58.912Z,103231.31
2023-01-23T17:42:26.824Z,103219.59
2023-01-23T17:44:55.950Z,103226.75
2023-01-23T17:47:24.072Z,103230.38
2023-01-23T17:49:54.561Z,103224.97
2023-01-23T17:52:24.782Z,103223.13
2023-01-23T17:54:54.339Z,103211.38
2023-01-23T17:57:22.457Z,103214.94
2023-01-23T17:59:50.246Z,103214.94
2023-01-23T18:02:28.516Z,103211.28
2023-01-23T18:04:57.143Z,103209.50
2023-01-23T18:07:25.005Z,103211.28
2023-01-23T18:09:55.468Z,103214.00
2023-01-23T18:12:31.526Z,103217.53
2023-01-23T18:15:07.419Z,103223.09
2023-01-23T18:17:43.355Z,103221.38
2023-01-23T18:20:18.686Z,103225.78
2023-01-23T18:22:47.326Z,103224.84
2023-01-23T18:25:16.756Z,103215.84
2023-01-23T18:27:49.022Z,103220.38
2023-01-23T18:30:46.827Z,103222.19
2023-01-23T18:33:50.748Z,103219.50
2023-01-23T18:36:31.519Z,103223.09
2023-01-23T18:39:23.674Z,103219.59
2023-01-23T18:42:03.948Z,103219.59
2023-01-23T18:44:35.486Z,103223.19
2023-01-23T18:47:05.660Z,103227.75
2023-01-23T18:49:38.239Z,103232.16
2023-01-23T18:52:12.094Z,103220.47
2023-01-23T18:54:48.259Z,103221.28
2023-01-23T18:57:28.145Z,103215.88
2023-01-23T19:00:05.871Z,103227.56
2023-01-23T19:02:39.217Z,103228.44
2023-01-23T19:05:25.840Z,103224.84
2023-01-23T19:07:54.209Z,103232.06
2023-01-23T19:10:23.537Z,103232.94
2023-01-23T19:13:07.698Z,103232.88
2023-01-23T19:15:42.565Z,103244.66
2023-01-23T19:18:40.815Z,103241.97
2023-01-23T19:21:16.071Z,103237.47
2023-01-23T19:23:51.687Z,103245.56
2023-01-23T19:26:20.454Z,103247.44
2023-01-23T19:28:49.035Z,103249.22
2023-01-23T19:31:22.407Z,103253.75
2023-01-23T19:33:50.444Z,103257.44
2023-01-23T19:36:20.203Z,103262.88
2023-01-23T19:38:52.505Z,103263.75
2023-01-23T19:41:22.224Z,103267.38
2023-01-23T19:43:54.089Z,103263.78
2023-01-23T19:46:23.563Z,103266.50
2023-01-23T19:48:55.562Z,103275.56
2023-01-23T19:51:26.483Z,103271.09
2023-01-23T19:53:55.439Z,103268.31
2023-01-23T19:56:23.272Z,103271.03
2023-01-23T19:58:51.437Z,103269.22
2023-01-23T20:01:24.101Z,103272.78
2023-01-23T20:03:52.236Z,103275.50
2023-01-23T20:06:20.009Z,103284.53
2023-01-23T20:08:52.353Z,103280.00
2023-01-23T20:11:20.399Z,103283.69
2023-01-23T20:13:48.341Z,103293.56
2023-01-23T20:16:20.002Z,103290.91
2023-01-23T20:18:49.027Z,103296.31
2023-01-23T20:21:18.244Z,103298.13
2023-01-23T20:23:46.533Z,103297.25
2023-01-23T20:26:17.680Z,103292.75
2023-01-23T20:28:47.781Z,103303.47
2023-01-23T20:31:15.906Z,103300.81
2023-01-23T20:33:44.253Z,103303.47
2023-01-23T20:36:13.389Z,103292.72
2023-01-23T20:38:42.893Z,103296.25
2023-01-23T20:41:13.095Z,103290.81
2023-01-23T20:43:42.935Z,103307.00
2023-01-23T20:46:12.137Z,103297.25
2023-01-23T20:48:41.668Z,103301.63
2023-01-23T20:51:10.283Z,103298.91
2023-01-23T20:53:39.936Z,103288.09
2023-01-23T20:56:10.377Z,103289.88
2023-01-23T20:58:57.615Z,103294.38
2023-01-23T21:01:28.535Z,103292.59
2023-01-23T21:03:56.562Z,103294.38
2023-01-23T21:06:24.342Z,103297.03
2023-01-23T21:08:52.190Z,103296.09
2023-01-23T21:11:20.950Z,103294.28
2023-01-23T21:13:51.970Z,103296.97
2023-01-23T21:16:19.868Z,103298.78
2023-01-23T21:18:50.077Z,103285.22
2023-01-23T21:21:20.525Z,103286.97
2023-01-23T21:23:50.169Z,103283.41
2023-01-23T21:26:20.582Z,103283.34
2023-01-23T21:28:53.227Z,103279.75
2023-01-23T21:31:24.418Z,103275.22
2023-01-23T21:33:56.794Z,103269.81
2023-01-23T21:36:29.560Z,103269.81
2023-01-23T21:39:00.703Z,103261.72
2023-01-23T21:41:35.434Z,103265.25
2023-01-23T21:44:03.477Z,103262.59
2023-01-23T21:46:31.336Z,103276.03
2023-01-23T21:49:00.565Z,103273.28
2023-01-23T21:51:31.423Z,103268.78
2023-01-23T21:54:00.296Z,103275.97
2023-01-23T21:56:28.367Z,103275.97
2023-01-23T21:58:56.424Z,103277.81
2023-01-23T22:01:35.670Z,103274.16
2023-01-23T22:04:06.993Z,103271.50
2023-01-23T22:06:38.096Z,103276.00
2023-01-23T22:09:06.815Z,103275.97
2023-01-23T22:11:37.955Z,103277.78
2023-01-23T22:14:06.027Z,103286.00
2023-01-23T22:16:47.862Z,103279.69
2023-01-23T22:19:22.037Z,103278.78
2023-01-23T22:21:51.347Z,103267.94
2023-01-23T22:24:19.312Z,103269.69
2023-01-23T22:26:47.150Z,103272.44
2023-01-23T22:29:15.297Z,103279.66
2023-01-23T22:31:43.299Z,103272.47
2023-01-23T22:34:11.434Z,103269.81
2023-01-23T22:36:40.774Z,103271.56
2023-01-23T22:39:08.550Z,103273.44
2023-01-23T22:41:36.328Z,103274.38
2023-01-23T22:44:04.220Z,103267.16
2023-01-23T22:46:32.592Z,103267.19
2023-01-23T22:49:00.389Z,103269.91
2023-01-23T22:51:29.195Z,103264.47
2023-01-23T22:53:59.830Z,103271.63
2023-01-23T22:56:29.035Z,103269.88
2023-01-23T22:58:57.694Z,103268.03
2023-01-23T23:01:26.974Z,103276.16
2023-01-23T23:03:55.385Z,103272.53
2023-01-23T23:06:23.326Z,103273.44
2023-01-23T23:08:51.094Z,103283.41
2023-01-23T23:11:22.084Z,103278.09
2023-01-23T23:13:50.510Z,103277.13
2023-01-23T23:16:20.729Z,103272.63
2023-01-23T23:18:51.344Z,103272.63
2023-01-23T23:21:21.427Z,103278.94
2023-01-23T23:23:49.324Z,103277.13
2023-01-23T23:26:17.633Z,103278.94
2023-01-23T23:28:46.793Z,103278.00
2023-01-23T23:31:16.988Z,103280.69
2023-01-23T23:33:44.907Z,103280.69
2023-01-23T23:36:13.030Z,103272.59
2023-01-23T23:38:40.927Z,103270.72
2023-01-23T23:41:12.418Z,103275.22
2023-01-23T23:43:40.210Z,103268.09
2023-01-23T23:46:10.908Z,103277.94
2023-01-23T23:48:39.700Z,103267.22
2023-01-23T23:51:09.716Z,103261.78
2023-01-23T23:53:37.696Z,103274.44
2023-01-23T23:56:06.880Z,103271.84
2023-01-23T23:58:36.367Z,103263.72
